sensor_id;sensor_type;location;lat;lon;timestamp;P1;durP1;ratioP1;P2;durP2;ratioP2
13386;SDS011;6763;48.524;9.044;2024-01-06T00:01:32;6.47;;;4.00;;
13386;SDS011;6763;48.524;9.044;2024-01-06T00:03:57;7.67;;;4.37;;
13386;SDS011;6763;48.524;9.044;2024-01-06T00:06:23;6.00;;;4.00;;
13386;SDS011;6763;48.524;9.044;2024-01-06T00:08:49;6.57;;;4.10;;
13386;SDS011;6763;48.524;9.044;2024-01-06T00:11:19;5.70;;;4.00;;
13386;SDS011;6763;48.524;9.044;2024-01-06T00:13:45;6.83;;;4.20;;
13386;SDS011;6763;48.524;9.044;2024-01-06T00:16:11;7.07;;;3.87;;
13386;SDS011;6763;48.524;9.044;2024-01-06T00:18:36;4.77;;;3.50;;
13386;SDS011;6763;48.524;9.044;2024-01-06T00:21:02;4.80;;;3.73;;
13386;SDS011;6763;48.524;9.044;2024-01-06T00:23:28;5.40;;;3.60;;
13386;SDS011;6763;48.524;9.044;2024-01-06T00:25:53;7.60;;;3.87;;
13386;SDS011;6763;48.524;9.044;2024-01-06T00:28:19;7.63;;;3.53;;
13386;SDS011;6763;48.524;9.044;2024-01-06T00:30:44;6.27;;;4.10;;
13386;SDS011;6763;48.524;9.044;2024-01-06T00:33:10;4.97;;;3.47;;
13386;SDS011;6763;48.524;9.044;2024-01-06T00:35:36;7.67;;;4.30;;
13386;SDS011;6763;48.524;9.044;2024-01-06T00:38:02;6.37;;;4.30;;
13386;SDS011;6763;48.524;9.044;2024-01-06T00:40:27;6.23;;;4.07;;
13386;SDS011;6763;48.524;9.044;2024-01-06T00:42:52;6.10;;;3.67;;
13386;SDS011;6763;48.524;9.044;2024-01-06T00:45:17;5.17;;;3.30;;
13386;SDS011;6763;48.524;9.044;2024-01-06T00:47:43;6.03;;;3.73;;
13386;SDS011;6763;48.524;9.044;2024-01-06T00:50:08;5.37;;;3.53;;
13386;SDS011;6763;48.524;9.044;2024-01-06T00:52:34;5.03;;;3.50;;
13386;SDS011;6763;48.524;9.044;2024-01-06T00:54:59;8.77;;;4.20;;
13386;SDS011;6763;48.524;9.044;2024-01-06T00:57:24;5.17;;;3.53;;
13386;SDS011;6763;48.524;9.044;2024-01-06T00:59:50;5.83;;;3.67;;
13386;SDS011;6763;48.524;9.044;2024-01-06T01:02:15;4.83;;;3.00;;
13386;SDS011;6763;48.524;9.044;2024-01-06T01:04:41;6.40;;;4.10;;
13386;SDS011;6763;48.524;9.044;2024-01-06T01:07:06;4.93;;;3.30;;
13386;SDS011;6763;48.524;9.044;2024-01-06T01:09:31;6.40;;;3.83;;
13386;SDS011;6763;48.524;9.044;2024-01-06T01:11:57;5.57;;;3.53;;
13386;SDS011;6763;48.524;9.044;2024-01-06T01:14:22;5.73;;;3.50;;
13386;SDS011;6763;48.524;9.044;2024-01-06T01:16:47;4.33;;;3.30;;
13386;SDS011;6763;48.524;9.044;2024-01-06T01:19:13;6.07;;;3.37;;
13386;SDS011;6763;48.524;9.044;2024-01-06T01:21:39;6.23;;;3.53;;
13386;SDS011;6763;48.524;9.044;2024-01-06T01:24:04;6.93;;;3.37;;
13386;SDS011;6763;48.524;9.044;2024-01-06T01:26:30;5.63;;;3.10;;
13386;SDS011;6763;48.524;9.044;2024-01-06T01:28:55;4.30;;;2.57;;
13386;SDS011;6763;48.524;9.044;2024-01-06T01:31:20;5.53;;;2.73;;
13386;SDS011;6763;48.524;9.044;2024-01-06T01:33:45;3.07;;;2.67;;
13386;SDS011;6763;48.524;9.044;2024-01-06T01:36:11;3.90;;;2.43;;
13386;SDS011;6763;48.524;9.044;2024-01-06T01:38:37;3.17;;;2.43;;
13386;SDS011;6763;48.524;9.044;2024-01-06T01:41:02;4.57;;;3.10;;
13386;SDS011;6763;48.524;9.044;2024-01-06T01:43:28;3.83;;;2.70;;
13386;SDS011;6763;48.524;9.044;2024-01-06T01:45:54;5.30;;;3.37;;
13386;SDS011;6763;48.524;9.044;2024-01-06T01:48:19;4.67;;;2.90;;
13386;SDS011;6763;48.524;9.044;2024-01-06T01:50:45;5.63;;;3.27;;
13386;SDS011;6763;48.524;9.044;2024-01-06T01:53:11;3.50;;;3.00;;
13386;SDS011;6763;48.524;9.044;2024-01-06T01:55:37;4.63;;;3.53;;
13386;SDS011;6763;48.524;9.044;2024-01-06T01:58:02;6.87;;;3.53;;
13386;SDS011;6763;48.524;9.044;2024-01-06T02:00:28;6.23;;;3.33;;
13386;SDS011;6763;48.524;9.044;2024-01-06T02:02:53;3.90;;;2.63;;
13386;SDS011;6763;48.524;9.044;2024-01-06T02:05:18;3.90;;;2.40;;
13386;SDS011;6763;48.524;9.044;2024-01-06T02:07:44;5.20;;;3.30;;
13386;SDS011;6763;48.524;9.044;2024-01-06T02:10:10;4.30;;;2.93;;
13386;SDS011;6763;48.524;9.044;2024-01-06T02:12:35;3.87;;;3.00;;
13386;SDS011;6763;48.524;9.044;2024-01-06T02:15:00;3.77;;;2.93;;
13386;SDS011;6763;48.524;9.044;2024-01-06T02:17:26;5.63;;;3.53;;
13386;SDS011;6763;48.524;9.044;2024-01-06T02:19:51;4.93;;;3.23;;
13386;SDS011;6763;48.524;9.044;2024-01-06T02:22:16;3.50;;;2.60;;
13386;SDS011;6763;48.524;9.044;2024-01-06T02:24:41;6.70;;;2.50;;
13386;SDS011;6763;48.524;9.044;2024-01-06T02:27:07;5.03;;;2.53;;
13386;SDS011;6763;48.524;9.044;2024-01-06T02:29:32;3.03;;;1.93;;
13386;SDS011;6763;48.524;9.044;2024-01-06T02:31:57;4.33;;;2.30;;
13386;SDS011;6763;48.524;9.044;2024-01-06T02:34:23;2.63;;;2.30;;
13386;SDS011;6763;48.524;9.044;2024-01-06T02:36:49;4.80;;;2.67;;
13386;SDS011;6763;48.524;9.044;2024-01-06T02:39:14;3.23;;;2.30;;
13386;SDS011;6763;48.524;9.044;2024-01-06T02:41:39;2.97;;;2.20;;
13386;SDS011;6763;48.524;9.044;2024-01-06T02:44:04;3.07;;;2.10;;
13386;SDS011;6763;48.524;9.044;2024-01-06T02:46:30;3.60;;;2.50;;
13386;SDS011;6763;48.524;9.044;2024-01-06T02:48:55;4.00;;;2.03;;
13386;SDS011;6763;48.524;9.044;2024-01-06T02:51:20;5.50;;;2.60;;
13386;SDS011;6763;48.524;9.044;2024-01-06T02:53:46;4.30;;;2.60;;
13386;SDS011;6763;48.524;9.044;2024-01-06T02:56:11;5.07;;;2.97;;
13386;SDS011;6763;48.524;9.044;2024-01-06T02:58:37;5.57;;;3.07;;
13386;SDS011;6763;48.524;9.044;2024-01-06T03:01:02;6.07;;;2.40;;
13386;SDS011;6763;48.524;9.044;2024-01-06T03:03:28;2.93;;;2.13;;
13386;SDS011;6763;48.524;9.044;2024-01-06T03:05:53;4.87;;;2.13;;
13386;SDS011;6763;48.524;9.044;2024-01-06T03:08:18;2.33;;;2.00;;
13386;SDS011;6763;48.524;9.044;2024-01-06T03:10:44;6.23;;;2.50;;
13386;SDS011;6763;48.524;9.044;2024-01-06T03:13:09;3.00;;;2.10;;
13386;SDS011;6763;48.524;9.044;2024-01-06T03:15:34;3.67;;;2.43;;
13386;SDS011;6763;48.524;9.044;2024-01-06T03:18:00;3.33;;;2.47;;
13386;SDS011;6763;48.524;9.044;2024-01-06T03:20:25;5.40;;;2.40;;
13386;SDS011;6763;48.524;9.044;2024-01-06T03:22:50;3.40;;;2.93;;
13386;SDS011;6763;48.524;9.044;2024-01-06T03:25:15;3.23;;;2.27;;
13386;SDS011;6763;48.524;9.044;2024-01-06T03:27:41;6.60;;;2.80;;
13386;SDS011;6763;48.524;9.044;2024-01-06T03:30:06;3.00;;;2.23;;
13386;SDS011;6763;48.524;9.044;2024-01-06T03:32:32;5.57;;;3.50;;
13386;SDS011;6763;48.524;9.044;2024-01-06T03:34:57;4.10;;;3.03;;
13386;SDS011;6763;48.524;9.044;2024-01-06T03:37:22;4.30;;;2.73;;
13386;SDS011;6763;48.524;9.044;2024-01-06T03:39:48;4.33;;;3.00;;
13386;SDS011;6763;48.524;9.044;2024-01-06T03:42:13;4.57;;;3.03;;
13386;SDS011;6763;48.524;9.044;2024-01-06T03:44:38;4.67;;;2.73;;
13386;SDS011;6763;48.524;9.044;2024-01-06T03:47:03;3.83;;;2.83;;
13386;SDS011;6763;48.524;9.044;2024-01-06T03:49:29;4.27;;;2.87;;
13386;SDS011;6763;48.524;9.044;2024-01-06T03:51:54;3.53;;;2.70;;
13386;SDS011;6763;48.524;9.044;2024-01-06T03:54:19;3.87;;;2.70;;
13386;SDS011;6763;48.524;9.044;2024-01-06T03:56:45;3.37;;;2.63;;
13386;SDS011;6763;48.524;9.044;2024-01-06T03:59:10;4.20;;;3.20;;
13386;SDS011;6763;48.524;9.044;2024-01-06T04:01:35;4.63;;;2.93;;
13386;SDS011;6763;48.524;9.044;2024-01-06T04:04:04;6.63;;;3.37;;
13386;SDS011;6763;48.524;9.044;2024-01-06T04:06:30;4.47;;;2.50;;
13386;SDS011;6763;48.524;9.044;2024-01-06T04:08:56;4.57;;;3.00;;
13386;SDS011;6763;48.524;9.044;2024-01-06T04:11:22;5.53;;;3.50;;
13386;SDS011;6763;48.524;9.044;2024-01-06T04:13:47;4.43;;;3.00;;
13386;SDS011;6763;48.524;9.044;2024-01-06T04:16:12;4.50;;;3.00;;
13386;SDS011;6763;48.524;9.044;2024-01-06T04:18:39;3.93;;;3.03;;
13386;SDS011;6763;48.524;9.044;2024-01-06T04:21:04;4.27;;;2.97;;
13386;SDS011;6763;48.524;9.044;2024-01-06T04:23:30;4.97;;;3.00;;
13386;SDS011;6763;48.524;9.044;2024-01-06T04:25:55;6.40;;;3.03;;
13386;SDS011;6763;48.524;9.044;2024-01-06T04:28:21;3.93;;;3.20;;
13386;SDS011;6763;48.524;9.044;2024-01-06T04:30:46;3.93;;;3.07;;
13386;SDS011;6763;48.524;9.044;2024-01-06T04:33:12;4.33;;;2.80;;
13386;SDS011;6763;48.524;9.044;2024-01-06T04:35:37;3.10;;;2.70;;
13386;SDS011;6763;48.524;9.044;2024-01-06T04:38:02;6.60;;;3.20;;
13386;SDS011;6763;48.524;9.044;2024-01-06T04:40:28;4.30;;;2.93;;
13386;SDS011;6763;48.524;9.044;2024-01-06T04:42:53;3.97;;;2.60;;
13386;SDS011;6763;48.524;9.044;2024-01-06T04:45:18;4.20;;;2.67;;
13386;SDS011;6763;48.524;9.044;2024-01-06T04:47:44;4.83;;;2.70;;
13386;SDS011;6763;48.524;9.044;2024-01-06T04:50:10;4.87;;;2.50;;
13386;SDS011;6763;48.524;9.044;2024-01-06T04:52:35;5.53;;;3.17;;
13386;SDS011;6763;48.524;9.044;2024-01-06T04:55:00;3.63;;;2.43;;
13386;SDS011;6763;48.524;9.044;2024-01-06T04:57:27;2.73;;;2.43;;
13386;SDS011;6763;48.524;9.044;2024-01-06T04:59:52;4.17;;;2.80;;
13386;SDS011;6763;48.524;9.044;2024-01-06T05:02:17;3.43;;;2.83;;
13386;SDS011;6763;48.524;9.044;2024-01-06T05:04:43;4.67;;;2.90;;
13386;SDS011;6763;48.524;9.044;2024-01-06T05:07:08;5.17;;;3.00;;
13386;SDS011;6763;48.524;9.044;2024-01-06T05:09:33;5.47;;;2.50;;
13386;SDS011;6763;48.524;9.044;2024-01-06T05:11:58;3.27;;;2.50;;
13386;SDS011;6763;48.524;9.044;2024-01-06T05:14:24;3.93;;;2.63;;
13386;SDS011;6763;48.524;9.044;2024-01-06T05:16:49;4.77;;;2.80;;
13386;SDS011;6763;48.524;9.044;2024-01-06T05:19:14;5.77;;;3.53;;
13386;SDS011;6763;48.524;9.044;2024-01-06T05:21:44;5.27;;;2.77;;
13386;SDS011;6763;48.524;9.044;2024-01-06T05:24:10;5.17;;;3.07;;
13386;SDS011;6763;48.524;9.044;2024-01-06T05:26:35;4.83;;;3.03;;
13386;SDS011;6763;48.524;9.044;2024-01-06T05:29:01;3.90;;;2.70;;
13386;SDS011;6763;48.524;9.044;2024-01-06T05:31:26;4.57;;;3.17;;
13386;SDS011;6763;48.524;9.044;2024-01-06T05:33:52;6.00;;;2.97;;
13386;SDS011;6763;48.524;9.044;2024-01-06T05:36:20;3.50;;;3.10;;
13386;SDS011;6763;48.524;9.044;2024-01-06T05:38:45;6.03;;;3.20;;
13386;SDS011;6763;48.524;9.044;2024-01-06T05:41:11;4.73;;;2.87;;
13386;SDS011;6763;48.524;9.044;2024-01-06T05:43:36;3.47;;;2.90;;
13386;SDS011;6763;48.524;9.044;2024-01-06T05:46:01;4.53;;;2.80;;
13386;SDS011;6763;48.524;9.044;2024-01-06T05:48:26;4.07;;;2.77;;
13386;SDS011;6763;48.524;9.044;2024-01-06T05:50:52;4.73;;;2.50;;
13386;SDS011;6763;48.524;9.044;2024-01-06T05:53:17;5.17;;;3.07;;
13386;SDS011;6763;48.524;9.044;2024-01-06T05:55:43;3.43;;;2.50;;
13386;SDS011;6763;48.524;9.044;2024-01-06T05:58:09;3.80;;;2.53;;
13386;SDS011;6763;48.524;9.044;2024-01-06T06:00:34;3.80;;;2.80;;
13386;SDS011;6763;48.524;9.044;2024-01-06T06:02:59;3.20;;;2.70;;
13386;SDS011;6763;48.524;9.044;2024-01-06T06:05:25;4.97;;;2.63;;
13386;SDS011;6763;48.524;9.044;2024-01-06T06:07:51;2.93;;;2.30;;
13386;SDS011;6763;48.524;9.044;2024-01-06T06:10:17;2.60;;;2.10;;
13386;SDS011;6763;48.524;9.044;2024-01-06T06:12:43;3.63;;;2.50;;
13386;SDS011;6763;48.524;9.044;2024-01-06T06:15:09;3.97;;;2.40;;
13386;SDS011;6763;48.524;9.044;2024-01-06T06:17:35;3.53;;;2.40;;
13386;SDS011;6763;48.524;9.044;2024-01-06T06:20:00;3.30;;;1.87;;
13386;SDS011;6763;48.524;9.044;2024-01-06T06:22:26;4.47;;;2.60;;
13386;SDS011;6763;48.524;9.044;2024-01-06T06:24:55;3.13;;;2.10;;
13386;SDS011;6763;48.524;9.044;2024-01-06T06:27:23;3.40;;;2.40;;
13386;SDS011;6763;48.524;9.044;2024-01-06T06:29:49;3.40;;;2.10;;
13386;SDS011;6763;48.524;9.044;2024-01-06T06:32:14;3.50;;;1.93;;
13386;SDS011;6763;48.524;9.044;2024-01-06T06:34:39;2.40;;;2.20;;
13386;SDS011;6763;48.524;9.044;2024-01-06T06:37:05;4.87;;;2.30;;
13386;SDS011;6763;48.524;9.044;2024-01-06T06:39:30;3.37;;;1.67;;
13386;SDS011;6763;48.524;9.044;2024-01-06T06:41:57;2.00;;;1.80;;
13386;SDS011;6763;48.524;9.044;2024-01-06T06:44:22;2.47;;;1.80;;
13386;SDS011;6763;48.524;9.044;2024-01-06T06:46:48;2.27;;;2.03;;
13386;SDS011;6763;48.524;9.044;2024-01-06T06:49:13;2.07;;;1.73;;
13386;SDS011;6763;48.524;9.044;2024-01-06T06:51:39;2.00;;;1.70;;
13386;SDS011;6763;48.524;9.044;2024-01-06T06:54:11;4.10;;;2.13;;
13386;SDS011;6763;48.524;9.044;2024-01-06T06:56:36;2.17;;;1.97;;
13386;SDS011;6763;48.524;9.044;2024-01-06T06:59:01;3.77;;;2.23;;
13386;SDS011;6763;48.524;9.044;2024-01-06T07:01:27;2.20;;;1.83;;
13386;SDS011;6763;48.524;9.044;2024-01-06T07:03:52;4.53;;;1.50;;
13386;SDS011;6763;48.524;9.044;2024-01-06T07:06:17;2.40;;;1.73;;
13386;SDS011;6763;48.524;9.044;2024-01-06T07:08:42;2.87;;;1.57;;
13386;SDS011;6763;48.524;9.044;2024-01-06T07:11:08;4.90;;;2.70;;
13386;SDS011;6763;48.524;9.044;2024-01-06T07:13:33;5.63;;;3.20;;
13386;SDS011;6763;48.524;9.044;2024-01-06T07:15:59;2.30;;;1.67;;
13386;SDS011;6763;48.524;9.044;2024-01-06T07:18:24;2.87;;;1.63;;
13386;SDS011;6763;48.524;9.044;2024-01-06T07:20:50;2.63;;;2.00;;
13386;SDS011;6763;48.524;9.044;2024-01-06T07:23:15;2.37;;;1.60;;
13386;SDS011;6763;48.524;9.044;2024-01-06T07:25:40;2.27;;;1.90;;
13386;SDS011;6763;48.524;9.044;2024-01-06T07:28:06;5.70;;;1.60;;
13386;SDS011;6763;48.524;9.044;2024-01-06T07:30:33;3.73;;;1.90;;
13386;SDS011;6763;48.524;9.044;2024-01-06T07:32:58;2.80;;;1.93;;
13386;SDS011;6763;48.524;9.044;2024-01-06T07:35:23;1.97;;;1.60;;
13386;SDS011;6763;48.524;9.044;2024-01-06T07:37:49;1.67;;;1.57;;
13386;SDS011;6763;48.524;9.044;2024-01-06T07:40:14;2.10;;;1.50;;
13386;SDS011;6763;48.524;9.044;2024-01-06T07:42:41;2.03;;;1.47;;
13386;SDS011;6763;48.524;9.044;2024-01-06T07:45:07;1.27;;;1.13;;
13386;SDS011;6763;48.524;9.044;2024-01-06T07:47:33;2.77;;;1.30;;
13386;SDS011;6763;48.524;9.044;2024-01-06T07:49:58;1.60;;;1.20;;
13386;SDS011;6763;48.524;9.044;2024-01-06T07:52:23;1.60;;;1.43;;
13386;SDS011;6763;48.524;9.044;2024-01-06T07:54:48;1.43;;;1.33;;
13386;SDS011;6763;48.524;9.044;2024-01-06T07:57:14;7.23;;;2.63;;
13386;SDS011;6763;48.524;9.044;2024-01-06T07:59:39;2.73;;;1.87;;
13386;SDS011;6763;48.524;9.044;2024-01-06T08:02:05;3.17;;;2.07;;
13386;SDS011;6763;48.524;9.044;2024-01-06T08:04:30;3.20;;;2.10;;
13386;SDS011;6763;48.524;9.044;2024-01-06T08:06:56;2.50;;;1.77;;
13386;SDS011;6763;48.524;9.044;2024-01-06T08:09:21;3.97;;;1.60;;
13386;SDS011;6763;48.524;9.044;2024-01-06T08:11:48;3.30;;;2.10;;
13386;SDS011;6763;48.524;9.044;2024-01-06T08:14:14;3.27;;;1.60;;
13386;SDS011;6763;48.524;9.044;2024-01-06T08:16:39;1.87;;;1.67;;
13386;SDS011;6763;48.524;9.044;2024-01-06T08:19:04;4.23;;;1.87;;
13386;SDS011;6763;48.524;9.044;2024-01-06T08:21:29;3.20;;;2.70;;
13386;SDS011;6763;48.524;9.044;2024-01-06T08:23:55;2.20;;;1.57;;
13386;SDS011;6763;48.524;9.044;2024-01-06T08:26:21;2.10;;;1.90;;
13386;SDS011;6763;48.524;9.044;2024-01-06T08:28:46;1.93;;;1.63;;
13386;SDS011;6763;48.524;9.044;2024-01-06T08:31:11;2.23;;;1.63;;
13386;SDS011;6763;48.524;9.044;2024-01-06T08:33:37;2.60;;;1.70;;
13386;SDS011;6763;48.524;9.044;2024-01-06T08:36:02;1.93;;;1.40;;
13386;SDS011;6763;48.524;9.044;2024-01-06T08:38:28;2.00;;;1.40;;
13386;SDS011;6763;48.524;9.044;2024-01-06T08:40:53;4.17;;;1.23;;
13386;SDS011;6763;48.524;9.044;2024-01-06T08:43:18;5.40;;;1.57;;
13386;SDS011;6763;48.524;9.044;2024-01-06T08:45:44;1.90;;;1.60;;
13386;SDS011;6763;48.524;9.044;2024-01-06T08:48:09;2.73;;;1.17;;
13386;SDS011;6763;48.524;9.044;2024-01-06T08:50:36;1.70;;;1.57;;
13386;SDS011;6763;48.524;9.044;2024-01-06T08:53:01;1.60;;;1.27;;
13386;SDS011;6763;48.524;9.044;2024-01-06T08:55:27;2.37;;;1.67;;
13386;SDS011;6763;48.524;9.044;2024-01-06T08:57:52;1.90;;;1.40;;
13386;SDS011;6763;48.524;9.044;2024-01-06T09:00:17;2.00;;;1.60;;
13386;SDS011;6763;48.524;9.044;2024-01-06T09:02:43;4.57;;;1.40;;
13386;SDS011;6763;48.524;9.044;2024-01-06T09:05:08;1.83;;;1.40;;
13386;SDS011;6763;48.524;9.044;2024-01-06T09:07:33;1.33;;;1.23;;
13386;SDS011;6763;48.524;9.044;2024-01-06T09:09:58;1.87;;;1.17;;
13386;SDS011;6763;48.524;9.044;2024-01-06T09:12:25;3.50;;;1.47;;
13386;SDS011;6763;48.524;9.044;2024-01-06T09:14:50;1.53;;;1.33;;
13386;SDS011;6763;48.524;9.044;2024-01-06T09:17:17;1.43;;;1.20;;
13386;SDS011;6763;48.524;9.044;2024-01-06T09:19:42;1.77;;;1.60;;
13386;SDS011;6763;48.524;9.044;2024-01-06T09:22:08;2.13;;;1.53;;
13386;SDS011;6763;48.524;9.044;2024-01-06T09:24:33;5.93;;;1.73;;
13386;SDS011;6763;48.524;9.044;2024-01-06T09:26:58;1.97;;;1.60;;
13386;SDS011;6763;48.524;9.044;2024-01-06T09:29:24;2.70;;;1.37;;
13386;SDS011;6763;48.524;9.044;2024-01-06T09:31:50;1.53;;;1.43;;
13386;SDS011;6763;48.524;9.044;2024-01-06T09:34:15;1.67;;;1.57;;
13386;SDS011;6763;48.524;9.044;2024-01-06T09:36:40;2.03;;;1.20;;
13386;SDS011;6763;48.524;9.044;2024-01-06T09:39:06;1.63;;;1.20;;
13386;SDS011;6763;48.524;9.044;2024-01-06T09:41:33;1.80;;;1.37;;
13386;SDS011;6763;48.524;9.044;2024-01-06T09:43:58;4.03;;;2.13;;
13386;SDS011;6763;48.524;9.044;2024-01-06T09:46:24;3.80;;;1.77;;
13386;SDS011;6763;48.524;9.044;2024-01-06T09:48:51;1.30;;;1.20;;
13386;SDS011;6763;48.524;9.044;2024-01-06T09:51:20;1.20;;;1.10;;
13386;SDS011;6763;48.524;9.044;2024-01-06T09:53:53;2.10;;;1.40;;
13386;SDS011;6763;48.524;9.044;2024-01-06T09:56:26;2.33;;;1.10;;
13386;SDS011;6763;48.524;9.044;2024-01-06T09:58:54;2.40;;;2.10;;
13386;SDS011;6763;48.524;9.044;2024-01-06T10:01:20;2.13;;;1.97;;
13386;SDS011;6763;48.524;9.044;2024-01-06T10:03:46;1.30;;;1.20;;
13386;SDS011;6763;48.524;9.044;2024-01-06T10:06:15;1.80;;;1.03;;
13386;SDS011;6763;48.524;9.044;2024-01-06T10:08:44;1.33;;;1.23;;
13386;SDS011;6763;48.524;9.044;2024-01-06T10:11:13;1.63;;;1.47;;
13386;SDS011;6763;48.524;9.044;2024-01-06T10:13:39;4.10;;;1.13;;
13386;SDS011;6763;48.524;9.044;2024-01-06T10:16:05;1.17;;;0.83;;
13386;SDS011;6763;48.524;9.044;2024-01-06T10:18:31;1.93;;;1.10;;
13386;SDS011;6763;48.524;9.044;2024-01-06T10:20:56;1.40;;;1.00;;
13386;SDS011;6763;48.524;9.044;2024-01-06T10:23:23;1.73;;;1.33;;
13386;SDS011;6763;48.524;9.044;2024-01-06T10:25:51;1.40;;;1.20;;
13386;SDS011;6763;48.524;9.044;2024-01-06T10:28:18;1.37;;;1.07;;
13386;SDS011;6763;48.524;9.044;2024-01-06T10:30:43;1.40;;;0.83;;
13386;SDS011;6763;48.524;9.044;2024-01-06T10:33:09;1.50;;;0.90;;
13386;SDS011;6763;48.524;9.044;2024-01-06T10:35:35;1.10;;;1.00;;
13386;SDS011;6763;48.524;9.044;2024-01-06T10:38:01;1.00;;;0.90;;
13386;SDS011;6763;48.524;9.044;2024-01-06T10:40:27;1.47;;;1.00;;
13386;SDS011;6763;48.524;9.044;2024-01-06T10:42:52;0.80;;;0.80;;
13386;SDS011;6763;48.524;9.044;2024-01-06T10:45:17;1.37;;;0.80;;
13386;SDS011;6763;48.524;9.044;2024-01-06T10:47:43;1.40;;;0.90;;
13386;SDS011;6763;48.524;9.044;2024-01-06T10:50:09;0.90;;;0.87;;
13386;SDS011;6763;48.524;9.044;2024-01-06T10:52:35;1.63;;;0.80;;
13386;SDS011;6763;48.524;9.044;2024-01-06T10:55:02;1.60;;;0.80;;
13386;SDS011;6763;48.524;9.044;2024-01-06T10:57:30;1.20;;;0.90;;
13386;SDS011;6763;48.524;9.044;2024-01-06T10:59:57;1.07;;;0.87;;
13386;SDS011;6763;48.524;9.044;2024-01-06T11:02:23;0.97;;;0.87;;
13386;SDS011;6763;48.524;9.044;2024-01-06T11:04:50;2.20;;;1.10;;
13386;SDS011;6763;48.524;9.044;2024-01-06T11:07:16;1.17;;;0.90;;
13386;SDS011;6763;48.524;9.044;2024-01-06T11:09:46;0.77;;;0.77;;
13386;SDS011;6763;48.524;9.044;2024-01-06T11:12:17;0.80;;;0.70;;
13386;SDS011;6763;48.524;9.044;2024-01-06T11:14:43;1.17;;;0.80;;
13386;SDS011;6763;48.524;9.044;2024-01-06T11:17:10;1.23;;;0.80;;
13386;SDS011;6763;48.524;9.044;2024-01-06T11:24:56;1.30;;;0.77;;
13386;SDS011;6763;48.524;9.044;2024-01-06T11:27:30;0.97;;;0.60;;
13386;SDS011;6763;48.524;9.044;2024-01-06T11:29:56;0.60;;;0.60;;
13386;SDS011;6763;48.524;9.044;2024-01-06T11:32:29;0.60;;;0.57;;
13386;SDS011;6763;48.524;9.044;2024-01-06T11:40:10;1.13;;;0.87;;
13386;SDS011;6763;48.524;9.044;2024-01-06T11:43:00;0.90;;;0.77;;
13386;SDS011;6763;48.524;9.044;2024-01-06T11:45:30;0.73;;;0.60;;
13386;SDS011;6763;48.524;9.044;2024-01-06T11:47:58;0.63;;;0.50;;
13386;SDS011;6763;48.524;9.044;2024-01-06T11:50:25;0.70;;;0.60;;
13386;SDS011;6763;48.524;9.044;2024-01-06T11:52:51;0.50;;;0.50;;
13386;SDS011;6763;48.524;9.044;2024-01-06T11:55:18;0.70;;;0.70;;
13386;SDS011;6763;48.524;9.044;2024-01-06T11:57:44;0.50;;;0.50;;
13386;SDS011;6763;48.524;9.044;2024-01-06T12:00:10;1.17;;;0.77;;
13386;SDS011;6763;48.524;9.044;2024-01-06T12:02:37;0.60;;;0.60;;
13386;SDS011;6763;48.524;9.044;2024-01-06T12:05:02;0.50;;;0.50;;
13386;SDS011;6763;48.524;9.044;2024-01-06T12:07:27;1.13;;;0.60;;
13386;SDS011;6763;48.524;9.044;2024-01-06T12:10:02;0.43;;;0.43;;
13386;SDS011;6763;48.524;9.044;2024-01-06T12:12:28;0.50;;;0.50;;
13386;SDS011;6763;48.524;9.044;2024-01-06T12:14:54;0.47;;;0.37;;
13386;SDS011;6763;48.524;9.044;2024-01-06T12:17:20;0.60;;;0.50;;
13386;SDS011;6763;48.524;9.044;2024-01-06T12:19:46;0.70;;;0.60;;
13386;SDS011;6763;48.524;9.044;2024-01-06T12:22:13;0.80;;;0.50;;
13386;SDS011;6763;48.524;9.044;2024-01-06T12:24:41;0.77;;;0.57;;
13386;SDS011;6763;48.524;9.044;2024-01-06T12:27:08;0.97;;;0.70;;
13386;SDS011;6763;48.524;9.044;2024-01-06T12:29:38;0.83;;;0.70;;
13386;SDS011;6763;48.524;9.044;2024-01-06T12:32:05;0.97;;;0.77;;
13386;SDS011;6763;48.524;9.044;2024-01-06T12:34:30;0.60;;;0.60;;
13386;SDS011;6763;48.524;9.044;2024-01-06T12:36:56;0.70;;;0.70;;
13386;SDS011;6763;48.524;9.044;2024-01-06T12:39:21;0.77;;;0.70;;
13386;SDS011;6763;48.524;9.044;2024-01-06T12:41:48;0.63;;;0.63;;
13386;SDS011;6763;48.524;9.044;2024-01-06T12:44:15;0.60;;;0.60;;
13386;SDS011;6763;48.524;9.044;2024-01-06T12:46:41;1.40;;;0.70;;
13386;SDS011;6763;48.524;9.044;2024-01-06T12:49:07;0.77;;;0.70;;
13386;SDS011;6763;48.524;9.044;2024-01-06T12:51:32;1.00;;;0.80;;
13386;SDS011;6763;48.524;9.044;2024-01-06T12:53:57;0.83;;;0.63;;
13386;SDS011;6763;48.524;9.044;2024-01-06T12:56:23;0.67;;;0.60;;
13386;SDS011;6763;48.524;9.044;2024-01-06T12:58:48;1.83;;;0.80;;
13386;SDS011;6763;48.524;9.044;2024-01-06T13:01:14;0.70;;;0.70;;
13386;SDS011;6763;48.524;9.044;2024-01-06T13:03:39;0.90;;;0.60;;
13386;SDS011;6763;48.524;9.044;2024-01-06T13:06:04;1.00;;;0.80;;
13386;SDS011;6763;48.524;9.044;2024-01-06T13:08:29;0.57;;;0.57;;
13386;SDS011;6763;48.524;9.044;2024-01-06T13:10:55;0.50;;;0.43;;
13386;SDS011;6763;48.524;9.044;2024-01-06T13:13:21;0.57;;;0.53;;
13386;SDS011;6763;48.524;9.044;2024-01-06T13:15:46;0.70;;;0.70;;
13386;SDS011;6763;48.524;9.044;2024-01-06T13:18:12;0.93;;;0.90;;
13386;SDS011;6763;48.524;9.044;2024-01-06T13:20:38;0.77;;;0.60;;
13386;SDS011;6763;48.524;9.044;2024-01-06T13:23:05;0.80;;;0.80;;
13386;SDS011;6763;48.524;9.044;2024-01-06T13:25:32;0.60;;;0.60;;
13386;SDS011;6763;48.524;9.044;2024-01-06T13:27:57;0.80;;;0.80;;
13386;SDS011;6763;48.524;9.044;2024-01-06T13:30:23;1.50;;;0.90;;
13386;SDS011;6763;48.524;9.044;2024-01-06T13:32:48;0.73;;;0.73;;
13386;SDS011;6763;48.524;9.044;2024-01-06T13:35:15;1.27;;;0.90;;
13386;SDS011;6763;48.524;9.044;2024-01-06T13:37:41;1.63;;;1.10;;
13386;SDS011;6763;48.524;9.044;2024-01-06T13:40:08;0.93;;;0.80;;
13386;SDS011;6763;48.524;9.044;2024-01-06T13:42:34;0.80;;;0.50;;
13386;SDS011;6763;48.524;9.044;2024-01-06T13:45:00;0.60;;;0.60;;
13386;SDS011;6763;48.524;9.044;2024-01-06T13:47:28;0.67;;;0.53;;
13386;SDS011;6763;48.524;9.044;2024-01-06T13:49:54;1.00;;;0.50;;
13386;SDS011;6763;48.524;9.044;2024-01-06T13:52:21;0.77;;;0.77;;
13386;SDS011;6763;48.524;9.044;2024-01-06T13:54:47;1.97;;;1.23;;
13386;SDS011;6763;48.524;9.044;2024-01-06T13:57:12;0.70;;;0.70;;
13386;SDS011;6763;48.524;9.044;2024-01-06T13:59:38;0.70;;;0.70;;
13386;SDS011;6763;48.524;9.044;2024-01-06T14:02:08;0.97;;;0.77;;
13386;SDS011;6763;48.524;9.044;2024-01-06T14:04:34;0.60;;;0.60;;
13386;SDS011;6763;48.524;9.044;2024-01-06T14:07:00;1.83;;;1.30;;
13386;SDS011;6763;48.524;9.044;2024-01-06T14:09:27;1.23;;;0.70;;
13386;SDS011;6763;48.524;9.044;2024-01-06T14:11:52;0.80;;;0.70;;
13386;SDS011;6763;48.524;9.044;2024-01-06T14:14:19;2.03;;;1.00;;
13386;SDS011;6763;48.524;9.044;2024-01-06T14:16:48;0.90;;;0.70;;
13386;SDS011;6763;48.524;9.044;2024-01-06T14:19:13;1.30;;;0.70;;
13386;SDS011;6763;48.524;9.044;2024-01-06T14:21:41;0.83;;;0.63;;
13386;SDS011;6763;48.524;9.044;2024-01-06T14:24:06;1.13;;;0.93;;
13386;SDS011;6763;48.524;9.044;2024-01-06T14:26:32;0.60;;;0.60;;
13386;SDS011;6763;48.524;9.044;2024-01-06T14:28:58;0.60;;;0.50;;
13386;SDS011;6763;48.524;9.044;2024-01-06T14:31:24;1.03;;;0.93;;
13386;SDS011;6763;48.524;9.044;2024-01-06T14:33:49;2.03;;;1.90;;
13386;SDS011;6763;48.524;9.044;2024-01-06T14:36:15;1.00;;;0.90;;
13386;SDS011;6763;48.524;9.044;2024-01-06T14:38:40;0.73;;;0.73;;
13386;SDS011;6763;48.524;9.044;2024-01-06T14:41:06;1.00;;;0.77;;
13386;SDS011;6763;48.524;9.044;2024-01-06T14:43:31;1.50;;;1.00;;
13386;SDS011;6763;48.524;9.044;2024-01-06T14:45:56;1.20;;;1.10;;
13386;SDS011;6763;48.524;9.044;2024-01-06T14:48:22;1.00;;;0.60;;
13386;SDS011;6763;48.524;9.044;2024-01-06T14:50:47;0.50;;;0.50;;
13386;SDS011;6763;48.524;9.044;2024-01-06T14:53:13;0.53;;;0.53;;
13386;SDS011;6763;48.524;9.044;2024-01-06T14:55:39;0.60;;;0.60;;
13386;SDS011;6763;48.524;9.044;2024-01-06T14:58:05;1.17;;;0.60;;
13386;SDS011;6763;48.524;9.044;2024-01-06T15:00:30;0.57;;;0.57;;
13386;SDS011;6763;48.524;9.044;2024-01-06T15:02:56;0.70;;;0.63;;